sensor_id;sensor_type;location;lat;lon;timestamp;P1;durP1;ratioP1;P2;durP2;ratioP2
60078;SDS011;45951;45.824;8.824;2023-10-19T00:00:53;27.75;;;20.50;;
60078;SDS011;45951;45.824;8.824;2023-10-19T00:02:35;26.33;;;19.90;;
60078;SDS011;45951;45.824;8.824;2023-10-19T00:04:16;27.55;;;20.33;;
60078;SDS011;45951;45.824;8.824;2023-10-19T00:05:57;27.60;;;20.15;;
60078;SDS011;45951;45.824;8.824;2023-10-19T00:07:38;27.98;;;21.67;;
60078;SDS011;45951;45.824;8.824;2023-10-19T00:09:18;29.30;;;20.77;;
60078;SDS011;45951;45.824;8.824;2023-10-19T00:11:00;26.67;;;19.75;;
60078;SDS011;45951;45.824;8.824;2023-10-19T00:12:47;27.00;;;20.48;;
60078;SDS011;45951;45.824;8.824;2023-10-19T00:14:37;23.92;;;18.60;;
60078;SDS011;45951;45.824;8.824;2023-10-19T00:16:17;25.92;;;17.83;;
60078;SDS011;45951;45.824;8.824;2023-10-19T00:18:01;24.38;;;19.15;;
60078;SDS011;45951;45.824;8.824;2023-10-19T00:19:57;25.58;;;17.50;;
60078;SDS011;45951;45.824;8.824;2023-10-19T00:21:38;27.10;;;16.42;;
60078;SDS011;45951;45.824;8.824;2023-10-19T00:23:30;22.08;;;15.45;;
60078;SDS011;45951;45.824;8.824;2023-10-19T00:25:15;21.35;;;16.13;;
60078;SDS011;45951;45.824;8.824;2023-10-19T00:26:55;19.05;;;13.88;;
60078;SDS011;45951;45.824;8.824;2023-10-19T00:28:35;19.85;;;15.15;;
60078;SDS011;45951;45.824;8.824;2023-10-19T00:30:18;18.15;;;14.27;;
60078;SDS011;45951;45.824;8.824;2023-10-19T00:32:03;17.90;;;14.18;;
60078;SDS011;45951;45.824;8.824;2023-10-19T00:33:46;17.83;;;14.05;;
60078;SDS011;45951;45.824;8.824;2023-10-19T00:35:26;20.23;;;15.43;;
60078;SDS011;45951;45.824;8.824;2023-10-19T00:37:07;20.17;;;15.20;;
60078;SDS011;45951;45.824;8.824;2023-10-19T00:38:48;19.95;;;14.38;;
60078;SDS011;45951;45.824;8.824;2023-10-19T00:40:28;18.85;;;14.52;;
60078;SDS011;45951;45.824;8.824;2023-10-19T00:42:15;17.00;;;13.65;;
60078;SDS011;45951;45.824;8.824;2023-10-19T00:44:00;19.85;;;14.60;;
60078;SDS011;45951;45.824;8.824;2023-10-19T00:45:47;18.10;;;13.93;;
60078;SDS011;45951;45.824;8.824;2023-10-19T00:47:32;17.05;;;13.48;;
60078;SDS011;45951;45.824;8.824;2023-10-19T00:49:19;16.67;;;12.20;;
60078;SDS011;45951;45.824;8.824;2023-10-19T00:51:03;18.58;;;12.75;;
60078;SDS011;45951;45.824;8.824;2023-10-19T00:52:49;18.88;;;13.60;;
60078;SDS011;45951;45.824;8.824;2023-10-19T00:54:32;19.63;;;13.45;;
60078;SDS011;45951;45.824;8.824;2023-10-19T00:56:19;18.20;;;13.88;;
60078;SDS011;45951;45.824;8.824;2023-10-19T00:58:00;17.00;;;13.77;;
60078;SDS011;45951;45.824;8.824;2023-10-19T01:01:33;18.88;;;13.85;;
60078;SDS011;45951;45.824;8.824;2023-10-19T01:03:17;18.13;;;13.85;;
60078;SDS011;45951;45.824;8.824;2023-10-19T01:04:57;17.65;;;13.30;;
60078;SDS011;45951;45.824;8.824;2023-10-19T01:06:45;18.50;;;14.30;;
60078;SDS011;45951;45.824;8.824;2023-10-19T01:08:39;18.48;;;14.25;;
60078;SDS011;45951;45.824;8.824;2023-10-19T01:10:21;19.17;;;13.85;;
60078;SDS011;45951;45.824;8.824;2023-10-19T01:12:03;22.23;;;14.50;;
60078;SDS011;45951;45.824;8.824;2023-10-19T01:14:17;18.75;;;14.07;;
60078;SDS011;45951;45.824;8.824;2023-10-19T01:15:58;19.52;;;14.40;;
60078;SDS011;45951;45.824;8.824;2023-10-19T01:17:39;18.10;;;13.80;;
60078;SDS011;45951;45.824;8.824;2023-10-19T01:19:20;18.00;;;13.98;;
60078;SDS011;45951;45.824;8.824;2023-10-19T01:21:01;19.25;;;14.27;;
60078;SDS011;45951;45.824;8.824;2023-10-19T01:23:08;19.48;;;14.57;;
60078;SDS011;45951;45.824;8.824;2023-10-19T01:24:47;18.05;;;13.75;;
60078;SDS011;45951;45.824;8.824;2023-10-19T01:26:28;17.70;;;13.20;;
60078;SDS011;45951;45.824;8.824;2023-10-19T01:28:09;17.90;;;13.57;;
60078;SDS011;45951;45.824;8.824;2023-10-19T01:29:50;16.23;;;12.95;;
60078;SDS011;45951;45.824;8.824;2023-10-19T01:31:32;15.10;;;10.43;;
60078;SDS011;45951;45.824;8.824;2023-10-19T01:33:18;14.52;;;10.63;;
60078;SDS011;45951;45.824;8.824;2023-10-19T01:34:58;13.40;;;9.73;;
60078;SDS011;45951;45.824;8.824;2023-10-19T01:36:39;13.10;;;10.80;;
60078;SDS011;45951;45.824;8.824;2023-10-19T01:38:22;13.45;;;10.77;;
60078;SDS011;45951;45.824;8.824;2023-10-19T01:40:03;13.88;;;11.02;;
60078;SDS011;45951;45.824;8.824;2023-10-19T01:41:45;13.65;;;10.68;;
60078;SDS011;45951;45.824;8.824;2023-10-19T01:43:25;12.70;;;10.43;;
60078;SDS011;45951;45.824;8.824;2023-10-19T01:45:11;13.10;;;10.13;;
60078;SDS011;45951;45.824;8.824;2023-10-19T01:46:51;12.80;;;9.77;;
60078;SDS011;45951;45.824;8.824;2023-10-19T01:48:32;13.35;;;10.10;;
60078;SDS011;45951;45.824;8.824;2023-10-19T01:50:15;12.90;;;10.27;;
60078;SDS011;45951;45.824;8.824;2023-10-19T01:51:59;13.98;;;10.48;;
60078;SDS011;45951;45.824;8.824;2023-10-19T01:53:40;13.05;;;9.77;;
60078;SDS011;45951;45.824;8.824;2023-10-19T01:55:24;11.82;;;9.25;;
60078;SDS011;45951;45.824;8.824;2023-10-19T01:57:06;13.73;;;9.93;;
60078;SDS011;45951;45.824;8.824;2023-10-19T01:58:48;12.15;;;9.30;;
60078;SDS011;45951;45.824;8.824;2023-10-19T02:00:31;12.82;;;10.25;;
60078;SDS011;45951;45.824;8.824;2023-10-19T02:02:11;12.85;;;9.38;;
60078;SDS011;45951;45.824;8.824;2023-10-19T02:03:52;11.90;;;8.82;;
60078;SDS011;45951;45.824;8.824;2023-10-19T02:05:35;13.70;;;10.13;;
60078;SDS011;45951;45.824;8.824;2023-10-19T02:07:21;14.07;;;9.80;;
60078;SDS011;45951;45.824;8.824;2023-10-19T02:09:04;14.18;;;9.65;;
60078;SDS011;45951;45.824;8.824;2023-10-19T02:10:58;11.80;;;9.32;;
60078;SDS011;45951;45.824;8.824;2023-10-19T02:12:42;14.40;;;9.95;;
60078;SDS011;45951;45.824;8.824;2023-10-19T02:14:23;12.90;;;9.02;;
60078;SDS011;45951;45.824;8.824;2023-10-19T02:16:05;13.93;;;10.20;;
60078;SDS011;45951;45.824;8.824;2023-10-19T02:17:46;12.48;;;9.45;;
60078;SDS011;45951;45.824;8.824;2023-10-19T02:19:27;11.25;;;8.88;;
60078;SDS011;45951;45.824;8.824;2023-10-19T02:21:08;11.15;;;8.63;;
60078;SDS011;45951;45.824;8.824;2023-10-19T02:22:52;12.77;;;9.50;;
60078;SDS011;45951;45.824;8.824;2023-10-19T02:24:32;12.55;;;9.95;;
60078;SDS011;45951;45.824;8.824;2023-10-19T02:26:12;14.13;;;9.68;;
60078;SDS011;45951;45.824;8.824;2023-10-19T02:27:53;13.25;;;9.45;;
60078;SDS011;45951;45.824;8.824;2023-10-19T02:29:34;11.63;;;9.27;;
60078;SDS011;45951;45.824;8.824;2023-10-19T02:31:16;11.95;;;9.40;;
60078;SDS011;45951;45.824;8.824;2023-10-19T02:33:04;12.07;;;9.75;;
60078;SDS011;45951;45.824;8.824;2023-10-19T02:34:46;12.80;;;9.13;;
60078;SDS011;45951;45.824;8.824;2023-10-19T02:36:27;12.45;;;9.55;;
60078;SDS011;45951;45.824;8.824;2023-10-19T02:38:10;12.65;;;9.18;;
60078;SDS011;45951;45.824;8.824;2023-10-19T02:39:51;12.82;;;9.55;;
60078;SDS011;45951;45.824;8.824;2023-10-19T02:41:32;13.13;;;9.68;;
60078;SDS011;45951;45.824;8.824;2023-10-19T02:43:15;12.45;;;9.60;;
60078;SDS011;45951;45.824;8.824;2023-10-19T02:44:55;12.73;;;9.45;;
60078;SDS011;45951;45.824;8.824;2023-10-19T02:46:36;12.25;;;9.73;;
60078;SDS011;45951;45.824;8.824;2023-10-19T02:48:19;12.88;;;9.85;;
60078;SDS011;45951;45.824;8.824;2023-10-19T02:50:00;11.98;;;9.45;;
60078;SDS011;45951;45.824;8.824;2023-10-19T02:51:41;12.80;;;9.93;;
60078;SDS011;45951;45.824;8.824;2023-10-19T02:53:25;12.20;;;9.50;;
60078;SDS011;45951;45.824;8.824;2023-10-19T02:55:08;13.25;;;10.63;;
60078;SDS011;45951;45.824;8.824;2023-10-19T02:56:55;12.85;;;9.95;;
60078;SDS011;45951;45.824;8.824;2023-10-19T02:58:44;12.88;;;10.30;;
60078;SDS011;45951;45.824;8.824;2023-10-19T03:00:28;20.98;;;11.35;;
60078;SDS011;45951;45.824;8.824;2023-10-19T03:02:12;14.00;;;10.05;;
60078;SDS011;45951;45.824;8.824;2023-10-19T03:03:54;14.75;;;10.48;;
60078;SDS011;45951;45.824;8.824;2023-10-19T03:05:34;13.55;;;10.32;;
60078;SDS011;45951;45.824;8.824;2023-10-19T03:07:15;12.85;;;10.75;;
60078;SDS011;45951;45.824;8.824;2023-10-19T03:08:55;15.00;;;10.65;;
60078;SDS011;45951;45.824;8.824;2023-10-19T03:10:37;13.52;;;10.38;;
60078;SDS011;45951;45.824;8.824;2023-10-19T03:12:23;15.57;;;12.52;;
60078;SDS011;45951;45.824;8.824;2023-10-19T03:14:07;16.15;;;11.88;;
60078;SDS011;45951;45.824;8.824;2023-10-19T03:15:48;16.10;;;11.88;;
60078;SDS011;45951;45.824;8.824;2023-10-19T03:17:29;15.60;;;11.88;;
60078;SDS011;45951;45.824;8.824;2023-10-19T03:19:10;16.20;;;12.23;;
60078;SDS011;45951;45.824;8.824;2023-10-19T03:20:51;20.70;;;14.50;;
60078;SDS011;45951;45.824;8.824;2023-10-19T03:22:32;18.85;;;14.32;;
60078;SDS011;45951;45.824;8.824;2023-10-19T03:24:13;18.02;;;13.07;;
60078;SDS011;45951;45.824;8.824;2023-10-19T03:26:03;17.00;;;12.70;;
60078;SDS011;45951;45.824;8.824;2023-10-19T03:28:02;16.65;;;12.27;;
60078;SDS011;45951;45.824;8.824;2023-10-19T03:29:49;17.77;;;13.05;;
60078;SDS011;45951;45.824;8.824;2023-10-19T03:31:36;16.88;;;12.35;;
60078;SDS011;45951;45.824;8.824;2023-10-19T03:33:23;14.68;;;10.85;;
60078;SDS011;45951;45.824;8.824;2023-10-19T03:35:07;15.57;;;11.48;;
60078;SDS011;45951;45.824;8.824;2023-10-19T03:36:47;14.43;;;10.38;;
60078;SDS011;45951;45.824;8.824;2023-10-19T03:38:28;14.02;;;10.45;;
60078;SDS011;45951;45.824;8.824;2023-10-19T03:40:14;13.52;;;10.27;;
60078;SDS011;45951;45.824;8.824;2023-10-19T03:42:00;13.85;;;9.88;;
60078;SDS011;45951;45.824;8.824;2023-10-19T03:43:40;13.50;;;10.70;;
60078;SDS011;45951;45.824;8.824;2023-10-19T03:45:21;14.73;;;10.85;;
60078;SDS011;45951;45.824;8.824;2023-10-19T03:47:04;14.48;;;10.55;;
60078;SDS011;45951;45.824;8.824;2023-10-19T03:48:45;14.07;;;10.25;;
60078;SDS011;45951;45.824;8.824;2023-10-19T03:50:26;12.93;;;10.00;;
60078;SDS011;45951;45.824;8.824;2023-10-19T03:52:09;13.50;;;9.75;;
60078;SDS011;45951;45.824;8.824;2023-10-19T03:53:50;13.15;;;10.45;;
60078;SDS011;45951;45.824;8.824;2023-10-19T03:55:36;12.27;;;9.35;;
60078;SDS011;45951;45.824;8.824;2023-10-19T03:57:19;11.75;;;9.10;;
60078;SDS011;45951;45.824;8.824;2023-10-19T03:59:00;11.88;;;8.55;;
60078;SDS011;45951;45.824;8.824;2023-10-19T04:00:40;10.85;;;8.15;;
60078;SDS011;45951;45.824;8.824;2023-10-19T04:02:21;10.95;;;8.23;;
60078;SDS011;45951;45.824;8.824;2023-10-19T04:04:03;10.30;;;7.82;;
60078;SDS011;45951;45.824;8.824;2023-10-19T04:05:45;9.50;;;7.72;;
60078;SDS011;45951;45.824;8.824;2023-10-19T04:07:29;10.38;;;7.85;;
60078;SDS011;45951;45.824;8.824;2023-10-19T04:09:11;11.15;;;8.23;;
60078;SDS011;45951;45.824;8.824;2023-10-19T04:10:55;11.10;;;8.05;;
60078;SDS011;45951;45.824;8.824;2023-10-19T04:12:54;10.95;;;8.00;;
60078;SDS011;45951;45.824;8.824;2023-10-19T04:14:34;10.23;;;8.23;;
60078;SDS011;45951;45.824;8.824;2023-10-19T04:16:14;11.95;;;8.57;;
60078;SDS011;45951;45.824;8.824;2023-10-19T04:17:55;10.40;;;8.07;;
60078;SDS011;45951;45.824;8.824;2023-10-19T04:19:38;11.30;;;8.40;;
60078;SDS011;45951;45.824;8.824;2023-10-19T04:21:19;10.25;;;7.97;;
60078;SDS011;45951;45.824;8.824;2023-10-19T04:22:59;11.25;;;8.18;;
60078;SDS011;45951;45.824;8.824;2023-10-19T04:24:46;10.73;;;8.15;;
60078;SDS011;45951;45.824;8.824;2023-10-19T04:26:26;10.52;;;7.97;;
60078;SDS011;45951;45.824;8.824;2023-10-19T04:28:08;10.25;;;7.90;;
60078;SDS011;45951;45.824;8.824;2023-10-19T04:29:49;11.63;;;7.93;;
60078;SDS011;45951;45.824;8.824;2023-10-19T04:31:29;10.10;;;7.53;;
60078;SDS011;45951;45.824;8.824;2023-10-19T04:33:09;9.38;;;7.53;;
60078;SDS011;45951;45.824;8.824;2023-10-19T04:34:51;11.45;;;8.23;;
60078;SDS011;45951;45.824;8.824;2023-10-19T04:36:33;11.38;;;8.35;;
60078;SDS011;45951;45.824;8.824;2023-10-19T04:38:14;10.43;;;7.68;;
60078;SDS011;45951;45.824;8.824;2023-10-19T04:39:58;10.95;;;7.80;;
60078;SDS011;45951;45.824;8.824;2023-10-19T04:41:40;10.18;;;7.68;;
60078;SDS011;45951;45.824;8.824;2023-10-19T04:43:21;11.48;;;7.78;;
60078;SDS011;45951;45.824;8.824;2023-10-19T04:45:02;10.13;;;8.07;;
60078;SDS011;45951;45.824;8.824;2023-10-19T04:46:42;9.45;;;7.30;;
60078;SDS011;45951;45.824;8.824;2023-10-19T04:48:23;10.05;;;7.70;;
60078;SDS011;45951;45.824;8.824;2023-10-19T04:50:03;9.82;;;7.30;;
60078;SDS011;45951;45.824;8.824;2023-10-19T04:51:44;11.30;;;7.55;;
60078;SDS011;45951;45.824;8.824;2023-10-19T04:53:25;9.70;;;7.75;;
60078;SDS011;45951;45.824;8.824;2023-10-19T04:55:05;10.23;;;8.00;;
60078;SDS011;45951;45.824;8.824;2023-10-19T04:56:46;10.07;;;7.75;;
60078;SDS011;45951;45.824;8.824;2023-10-19T04:58:27;10.18;;;7.85;;
60078;SDS011;45951;45.824;8.824;2023-10-19T05:00:08;10.93;;;7.97;;
60078;SDS011;45951;45.824;8.824;2023-10-19T05:01:53;10.40;;;8.00;;
60078;SDS011;45951;45.824;8.824;2023-10-19T05:03:34;11.35;;;8.35;;
60078;SDS011;45951;45.824;8.824;2023-10-19T05:05:15;11.68;;;8.30;;
60078;SDS011;45951;45.824;8.824;2023-10-19T05:06:57;10.43;;;8.05;;
60078;SDS011;45951;45.824;8.824;2023-10-19T05:08:37;10.23;;;7.82;;
60078;SDS011;45951;45.824;8.824;2023-10-19T05:10:17;10.38;;;8.00;;
60078;SDS011;45951;45.824;8.824;2023-10-19T05:11:59;10.00;;;7.82;;
60078;SDS011;45951;45.824;8.824;2023-10-19T05:13:40;11.38;;;8.07;;
60078;SDS011;45951;45.824;8.824;2023-10-19T05:15:20;11.10;;;7.93;;
60078;SDS011;45951;45.824;8.824;2023-10-19T05:17:00;11.35;;;8.65;;
60078;SDS011;45951;45.824;8.824;2023-10-19T05:18:40;11.35;;;8.93;;
60078;SDS011;45951;45.824;8.824;2023-10-19T05:20:21;10.43;;;7.72;;
60078;SDS011;45951;45.824;8.824;2023-10-19T05:22:02;10.85;;;8.00;;
60078;SDS011;45951;45.824;8.824;2023-10-19T05:23:44;9.70;;;7.75;;
60078;SDS011;45951;45.824;8.824;2023-10-19T05:25:24;10.68;;;8.07;;
60078;SDS011;45951;45.824;8.824;2023-10-19T05:27:05;10.98;;;8.50;;
60078;SDS011;45951;45.824;8.824;2023-10-19T05:28:45;11.52;;;8.35;;
60078;SDS011;45951;45.824;8.824;2023-10-19T05:30:27;11.43;;;9.15;;
60078;SDS011;45951;45.824;8.824;2023-10-19T05:32:07;12.02;;;8.85;;
60078;SDS011;45951;45.824;8.824;2023-10-19T05:33:49;11.65;;;8.45;;
60078;SDS011;45951;45.824;8.824;2023-10-19T05:35:29;12.60;;;9.35;;
60078;SDS011;45951;45.824;8.824;2023-10-19T05:37:10;10.65;;;8.50;;
60078;SDS011;45951;45.824;8.824;2023-10-19T05:38:50;12.93;;;9.07;;
60078;SDS011;45951;45.824;8.824;2023-10-19T05:40:31;14.88;;;8.93;;
60078;SDS011;45951;45.824;8.824;2023-10-19T05:42:11;12.02;;;8.45;;
60078;SDS011;45951;45.824;8.824;2023-10-19T05:43:52;11.90;;;9.05;;
60078;SDS011;45951;45.824;8.824;2023-10-19T05:45:33;10.68;;;7.65;;
60078;SDS011;45951;45.824;8.824;2023-10-19T05:47:16;13.02;;;9.23;;
60078;SDS011;45951;45.824;8.824;2023-10-19T05:48:56;10.75;;;8.43;;
60078;SDS011;45951;45.824;8.824;2023-10-19T05:50:37;11.18;;;8.95;;
60078;SDS011;45951;45.824;8.824;2023-10-19T05:52:18;13.85;;;8.77;;
60078;SDS011;45951;45.824;8.824;2023-10-19T05:53:58;12.55;;;10.18;;
60078;SDS011;45951;45.824;8.824;2023-10-19T05:55:44;11.45;;;8.73;;
60078;SDS011;45951;45.824;8.824;2023-10-19T05:57:25;12.15;;;9.23;;
60078;SDS011;45951;45.824;8.824;2023-10-19T05:59:06;11.00;;;8.82;;
60078;SDS011;45951;45.824;8.824;2023-10-19T06:00:46;11.63;;;9.10;;
60078;SDS011;45951;45.824;8.824;2023-10-19T06:02:27;11.68;;;8.95;;
60078;SDS011;45951;45.824;8.824;2023-10-19T06:04:07;13.98;;;10.43;;
60078;SDS011;45951;45.824;8.824;2023-10-19T06:05:48;11.00;;;9.38;;
60078;SDS011;45951;45.824;8.824;2023-10-19T06:07:28;12.45;;;9.32;;
60078;SDS011;45951;45.824;8.824;2023-10-19T06:09:09;10.88;;;8.57;;
60078;SDS011;45951;45.824;8.824;2023-10-19T06:10:52;12.80;;;9.23;;
60078;SDS011;45951;45.824;8.824;2023-10-19T06:12:33;11.15;;;8.38;;
60078;SDS011;45951;45.824;8.824;2023-10-19T06:14:14;10.75;;;8.30;;
60078;SDS011;45951;45.824;8.824;2023-10-19T06:15:55;11.25;;;8.32;;
60078;SDS011;45951;45.824;8.824;2023-10-19T06:17:35;11.93;;;8.43;;
60078;SDS011;45951;45.824;8.824;2023-10-19T06:19:16;11.20;;;8.38;;
60078;SDS011;45951;45.824;8.824;2023-10-19T06:20:56;9.90;;;8.13;;
60078;SDS011;45951;45.824;8.824;2023-10-19T06:22:36;10.05;;;7.97;;
60078;SDS011;45951;45.824;8.824;2023-10-19T06:24:16;9.95;;;8.27;;
60078;SDS011;45951;45.824;8.824;2023-10-19T06:25:57;9.90;;;7.80;;
60078;SDS011;45951;45.824;8.824;2023-10-19T06:27:39;10.35;;;7.90;;
60078;SDS011;45951;45.824;8.824;2023-10-19T06:29:20;9.57;;;7.80;;
60078;SDS011;45951;45.824;8.824;2023-10-19T06:31:00;12.00;;;8.98;;
60078;SDS011;45951;45.824;8.824;2023-10-19T06:32:41;11.93;;;8.55;;
60078;SDS011;45951;45.824;8.824;2023-10-19T06:34:21;9.52;;;7.28;;
60078;SDS011;45951;45.824;8.824;2023-10-19T06:36:02;12.25;;;8.27;;
60078;SDS011;45951;45.824;8.824;2023-10-19T06:37:45;10.32;;;8.15;;
60078;SDS011;45951;45.824;8.824;2023-10-19T06:39:26;13.32;;;7.97;;
60078;SDS011;45951;45.824;8.824;2023-10-19T06:41:10;10.98;;;8.07;;
60078;SDS011;45951;45.824;8.824;2023-10-19T06:42:57;8.00;;;6.50;;
60078;SDS011;45951;45.824;8.824;2023-10-19T06:44:38;8.95;;;6.72;;
60078;SDS011;45951;45.824;8.824;2023-10-19T06:46:18;8.35;;;6.32;;
60078;SDS011;45951;45.824;8.824;2023-10-19T06:47:58;9.05;;;6.40;;
60078;SDS011;45951;45.824;8.824;2023-10-19T06:49:40;9.82;;;6.97;;
60078;SDS011;45951;45.824;8.824;2023-10-19T06:51:20;8.35;;;6.25;;
60078;SDS011;45951;45.824;8.824;2023-10-19T06:53:02;10.43;;;7.43;;
60078;SDS011;45951;45.824;8.824;2023-10-19T06:54:45;10.18;;;6.28;;
60078;SDS011;45951;45.824;8.824;2023-10-19T06:56:25;7.55;;;4.43;;
60078;SDS011;45951;45.824;8.824;2023-10-19T06:58:06;7.38;;;5.22;;
60078;SDS011;45951;45.824;8.824;2023-10-19T06:59:47;7.53;;;5.57;;
60078;SDS011;45951;45.824;8.824;2023-10-19T07:01:27;8.38;;;6.00;;
60078;SDS011;45951;45.824;8.824;2023-10-19T07:03:11;7.45;;;5.68;;
60078;SDS011;45951;45.824;8.824;2023-10-19T07:04:51;7.32;;;5.50;;
60078;SDS011;45951;45.824;8.824;2023-10-19T07:06:32;8.23;;;6.22;;
60078;SDS011;45951;45.824;8.824;2023-10-19T07:08:12;11.77;;;6.93;;
60078;SDS011;45951;45.824;8.824;2023-10-19T07:09:53;9.35;;;6.50;;
60078;SDS011;45951;45.824;8.824;2023-10-19T07:11:33;7.60;;;6.00;;
60078;SDS011;45951;45.824;8.824;2023-10-19T07:13:13;8.45;;;6.20;;
60078;SDS011;45951;45.824;8.824;2023-10-19T07:14:55;7.97;;;5.97;;
60078;SDS011;45951;45.824;8.824;2023-10-19T07:16:36;7.38;;;5.85;;
60078;SDS011;45951;45.824;8.824;2023-10-19T07:18:18;9.02;;;5.97;;
60078;SDS011;45951;45.824;8.824;2023-10-19T07:19:58;7.90;;;5.63;;
60078;SDS011;45951;45.824;8.824;2023-10-19T07:21:39;8.38;;;5.95;;
60078;SDS011;45951;45.824;8.824;2023-10-19T07:23:22;9.63;;;7.00;;
60078;SDS011;45951;45.824;8.824;2023-10-19T07:26:49;8.60;;;6.35;;
60078;SDS011;45951;45.824;8.824;2023-10-19T07:28:45;8.88;;;6.55;;
60078;SDS011;45951;45.824;8.824;2023-10-19T07:30:25;7.97;;;5.82;;
60078;SDS011;45951;45.824;8.824;2023-10-19T07:32:06;7.57;;;5.38;;
60078;SDS011;45951;45.824;8.824;2023-10-19T07:33:46;6.82;;;5.07;;
60078;SDS011;45951;45.824;8.824;2023-10-19T07:35:33;8.73;;;6.00;;
60078;SDS011;45951;45.824;8.824;2023-10-19T07:37:14;8.63;;;5.50;;
60078;SDS011;45951;45.824;8.824;2023-10-19T07:38:55;9.02;;;5.82;;
60078;SDS011;45951;45.824;8.824;2023-10-19T07:40:35;7.47;;;5.55;;
60078;SDS011;45951;45.824;8.824;2023-10-19T07:42:16;7.55;;;5.22;;
60078;SDS011;45951;45.824;8.824;2023-10-19T07:43:57;8.43;;;5.40;;
60078;SDS011;45951;45.824;8.824;2023-10-19T07:45:37;8.63;;;6.22;;
60078;SDS011;45951;45.824;8.824;2023-10-19T07:47:17;7.85;;;5.63;;
60078;SDS011;45951;45.824;8.824;2023-10-19T07:48:58;7.15;;;5.15;;
60078;SDS011;45951;45.824;8.824;2023-10-19T07:50:40;7.53;;;5.43;;
60078;SDS011;45951;45.824;8.824;2023-10-19T07:52:22;8.38;;;6.00;;
60078;SDS011;45951;45.824;8.824;2023-10-19T07:54:03;8.13;;;5.90;;
60078;SDS011;45951;45.824;8.824;2023-10-19T07:55:43;8.35;;;5.85;;
60078;SDS011;45951;45.824;8.824;2023-10-19T07:57:23;9.45;;;6.03;;
60078;SDS011;45951;45.824;8.824;2023-10-19T07:59:05;7.45;;;5.18;;
60078;SDS011;45951;45.824;8.824;2023-10-19T08:00:46;8.05;;;5.70;;
60078;SDS011;45951;45.824;8.824;2023-10-19T08:02:27;7.63;;;5.30;;
60078;SDS011;45951;45.824;8.824;2023-10-19T08:04:08;8.13;;;5.75;;
60078;SDS011;45951;45.824;8.824;2023-10-19T08:05:50;8.27;;;5.85;;
60078;SDS011;45951;45.824;8.824;2023-10-19T08:07:30;11.77;;;10.57;;
60078;SDS011;45951;45.824;8.824;2023-10-19T08:09:11;9.90;;;6.38;;
60078;SDS011;45951;45.824;8.824;2023-10-19T08:10:51;7.60;;;5.60;;
60078;SDS011;45951;45.824;8.824;2023-10-19T08:12:31;7.72;;;5.65;;
60078;SDS011;45951;45.824;8.824;2023-10-19T08:14:13;8.95;;;6.25;;
60078;SDS011;45951;45.824;8.824;2023-10-19T08:15:54;7.90;;;5.75;;
60078;SDS011;45951;45.824;8.824;2023-10-19T08:17:35;10.70;;;5.68;;
60078;SDS011;45951;45.824;8.824;2023-10-19T08:19:15;8.50;;;5.57;;
60078;SDS011;45951;45.824;8.824;2023-10-19T08:20:55;9.90;;;5.03;;
60078;SDS011;45951;45.824;8.824;2023-10-19T08:22:36;7.15;;;5.55;;
60078;SDS011;45951;45.824;8.824;2023-10-19T08:24:16;8.80;;;5.60;;
60078;SDS011;45951;45.824;8.824;2023-10-19T08:26:02;8.10;;;5.50;;
60078;SDS011;45951;45.824;8.824;2023-10-19T08:27:46;8.43;;;5.90;;
60078;SDS011;45951;45.824;8.824;2023-10-19T08:29:30;9.32;;;6.70;;
60078;SDS011;45951;45.824;8.824;2023-10-19T08:31:10;8.77;;;6.22;;
60078;SDS011;45951;45.824;8.824;2023-10-19T08:32:51;10.35;;;6.30;;
60078;SDS011;45951;45.824;8.824;2023-10-19T08:34:35;8.63;;;6.30;;
60078;SDS011;45951;45.824;8.824;2023-10-19T08:36:17;8.88;;;5.90;;
60078;SDS011;45951;45.824;8.824;2023-10-19T08:37:59;7.63;;;6.13;;
60078;SDS011;45951;45.824;8.824;2023-10-19T08:39:40;9.60;;;7.00;;
60078;SDS011;45951;45.824;8.824;2023-10-19T08:41:23;9.68;;;5.78;;
60078;SDS011;45951;45.824;8.824;2023-10-19T08:43:03;7.72;;;5.90;;
60078;SDS011;45951;45.824;8.824;2023-10-19T08:44:44;7.75;;;5.78;;
60078;SDS011;45951;45.824;8.824;2023-10-19T08:46:25;8.30;;;5.97;;
60078;SDS011;45951;45.824;8.824;2023-10-19T08:48:05;8.85;;;5.75;;
60078;SDS011;45951;45.824;8.824;2023-10-19T08:49:46;8.18;;;5.55;;
60078;SDS011;45951;45.824;8.824;2023-10-19T08:51:26;7.90;;;5.38;;
60078;SDS011;45951;45.824;8.824;2023-10-19T08:53:07;7.18;;;5.57;;
60078;SDS011;45951;45.824;8.824;2023-10-19T08:54:54;8.23;;;5.20;;
60078;SDS011;45951;45.824;8.824;2023-10-19T08:56:34;8.57;;;5.78;;
60078;SDS011;45951;45.824;8.824;2023-10-19T08:58:16;8.07;;;5.55;;
60078;SDS011;45951;45.824;8.824;2023-10-19T08:59:56;8.15;;;5.53;;
60078;SDS011;45951;45.824;8.824;2023-10-19T09:01:38;20.30;;;10.32;;
60078;SDS011;45951;45.824;8.824;2023-10-19T09:03:19;9.95;;;6.88;;
60078;SDS011;45951;45.824;8.824;2023-10-19T09:05:07;11.82;;;8.00;;
60078;SDS011;45951;45.824;8.824;2023-10-19T09:06:47;11.63;;;6.97;;
60078;SDS011;45951;45.824;8.824;2023-10-19T09:08:29;8.60;;;6.00;;
60078;SDS011;45951;45.824;8.824;2023-10-19T09:11:59;9.23;;;5.80;;
60078;SDS011;45951;45.824;8.824;2023-10-19T09:13:46;7.68;;;5.25;;
60078;SDS011;45951;45.824;8.824;2023-10-19T09:15:30;6.65;;;4.68;;
60078;SDS011;45951;45.824;8.824;2023-10-19T09:17:12;6.97;;;4.80;;
60078;SDS011;45951;45.824;8.824;2023-10-19T09:18:53;7.30;;;5.18;;
60078;SDS011;45951;45.824;8.824;2023-10-19T09:20:33;6.80;;;4.53;;
60078;SDS011;45951;45.824;8.824;2023-10-19T09:22:14;7.90;;;4.50;;
60078;SDS011;45951;45.824;8.824;2023-10-19T09:23:58;7.88;;;4.80;;
60078;SDS011;45951;45.824;8.824;2023-10-19T09:25:39;7.63;;;4.40;;
60078;SDS011;45951;45.824;8.824;2023-10-19T09:27:20;6.45;;;4.53;;
60078;SDS011;45951;45.824;8.824;2023-10-19T09:29:00;6.35;;;4.30;;
60078;SDS011;45951;45.824;8.824;2023-10-19T09:30:41;6.50;;;4.45;;
60078;SDS011;45951;45.824;8.824;2023-10-19T09:32:22;6.90;;;4.32;;
60078;SDS011;45951;45.824;8.824;2023-10-19T09:34:03;6.35;;;4.38;;
60078;SDS011;45951;45.824;8.824;2023-10-19T09:35:46;7.60;;;5.22;;
60078;SDS011;45951;45.824;8.824;2023-10-19T09:37:32;7.32;;;4.95;;
60078;SDS011;45951;45.824;8.824;2023-10-19T09:39:14;7.55;;;5.53;;
60078;SDS011;45951;45.824;8.824;2023-10-19T09:40:56;6.72;;;5.10;;
60078;SDS011;45951;45.824;8.824;2023-10-19T09:42:40;7.03;;;5.20;;
60078;SDS011;45951;45.824;8.824;2023-10-19T09:44:26;6.85;;;4.97;;
60078;SDS011;45951;45.824;8.824;2023-10-19T09:46:07;7.88;;;4.72;;
60078;SDS011;45951;45.824;8.824;2023-10-19T09:47:51;6.95;;;4.50;;
60078;SDS011;45951;45.824;8.824;2023-10-19T09:49:34;6.93;;;4.68;;
60078;SDS011;45951;45.824;8.824;2023-10-19T09:51:14;7.95;;;4.15;;
60078;SDS011;45951;45.824;8.824;2023-10-19T09:52:56;6.32;;;4.10;;
60078;SDS011;45951;45.824;8.824;2023-10-19T09:56:38;6.82;;;3.67;;
60078;SDS011;45951;45.824;8.824;2023-10-19T09:58:23;6.80;;;4.53;;
60078;SDS011;45951;45.824;8.824;2023-10-19T10:00:06;7.68;;;4.72;;
60078;SDS011;45951;45.824;8.824;2023-10-19T10:02:09;8.52;;;4.45;;
60078;SDS011;45951;45.824;8.824;2023-10-19T10:03:53;6.13;;;4.25;;
60078;SDS011;45951;45.824;8.824;2023-10-19T10:07:23;5.47;;;3.97;;
60078;SDS011;45951;45.824;8.824;2023-10-19T10:09:05;5.38;;;3.70;;
60078;SDS011;45951;45.824;8.824;2023-10-19T10:10:51;5.25;;;3.10;;
60078;SDS011;45951;45.824;8.824;2023-10-19T10:12:32;4.13;;;2.80;;
60078;SDS011;45951;45.824;8.824;2023-10-19T10:14:20;4.10;;;2.47;;
60078;SDS011;45951;45.824;8.824;2023-10-19T10:16:04;4.65;;;2.60;;
60078;SDS011;45951;45.824;8.824;2023-10-19T10:17:52;3.70;;;2.55;;